createdAt,value
2022-11-15T00:00:21.267Z,10.63
2022-11-15T00:03:00.606Z,8.73
2022-11-15T00:05:34.571Z,8.63
2022-11-15T00:08:08.589Z,11.45
2022-11-15T00:10:42.534Z,8.48
2022-11-15T00:13:16.916Z,8.93
2022-11-15T00:15:50.920Z,9.68
2022-11-15T00:18:30.100Z,9.55
2022-11-15T00:21:04.189Z,9.95
2022-11-15T00:23:38.094Z,10.50
2022-11-15T00:26:12.208Z,9.70
2022-11-15T00:28:46.033Z,11.15
2022-11-15T00:31:20.764Z,11.77
2022-11-15T00:33:59.901Z,8.23
2022-11-15T00:36:33.750Z,9.40
2022-11-15T00:39:07.634Z,7.57
2022-11-15T00:41:41.553Z,9.68
2022-11-15T00:44:15.418Z,9.57
2022-11-15T00:46:49.404Z,12.05
2022-11-15T00:49:28.494Z,11.80
2022-11-15T00:52:02.445Z,10.57
2022-11-15T00:54:36.397Z,8.50
2022-11-15T00:57:10.490Z,9.98
2022-11-15T00:59:44.318Z,12.88
2022-11-15T01:02:18.232Z,9.73
2022-11-15T01:04:57.359Z,14.48
2022-11-15T01:07:31.437Z,9.07
2022-11-15T01:10:05.405Z,11.32
2022-11-15T01:12:39.442Z,10.73
2022-11-15T01:15:13.946Z,8.98
2022-11-15T01:17:47.917Z,9.50
2022-11-15T01:20:29.673Z,8.98
2022-11-15T01:23:03.660Z,8.73
2022-11-15T01:25:37.565Z,8.43
2022-11-15T01:28:11.441Z,10.27
2022-11-15T01:30:45.273Z,15.65
2022-11-15T01:33:19.154Z,10.38
2022-11-15T01:35:58.354Z,11.50
2022-11-15T01:38:32.266Z,7.50
2022-11-15T01:41:06.184Z,10.15
2022-11-15T01:43:41.035Z,8.18
2022-11-15T01:46:18.853Z,10.25
2022-11-15T01:48:52.694Z,11.52
2022-11-15T01:51:33.964Z,9.32
2022-11-15T01:54:09.480Z,9.90
2022-11-15T01:56:45.637Z,8.80
2022-11-15T01:59:19.449Z,8.45
2022-11-15T02:01:53.286Z,9.07
2022-11-15T02:04:27.917Z,8.27
2022-11-15T02:07:07.363Z,6.50
2022-11-15T02:09:41.348Z,7.10
2022-11-15T02:12:15.662Z,8.25
2022-11-15T02:14:50.522Z,10.85
2022-11-15T02:17:35.939Z,11.02
2022-11-15T02:20:34.394Z,10.27
2022-11-15T02:23:45.106Z,8.63
2022-11-15T02:26:38.798Z,12.75
2022-11-15T02:29:13.327Z,6.65
2022-11-15T02:31:55.942Z,10.67
2022-11-15T02:34:32.682Z,6.65
2022-11-15T02:37:23.523Z,7.20
2022-11-15T02:39:58.422Z,9.70
2022-11-15T02:42:46.501Z,8.82
2022-11-15T02:45:24.623Z,19.40
2022-11-15T02:48:04.279Z,10.10
2022-11-15T02:50:38.931Z,8.30
2022-11-15T02:53:12.737Z,9.82
2022-11-15T02:55:48.697Z,8.93
2022-11-15T02:58:56.476Z,7.75
2022-11-15T03:01:36.514Z,8.25
2022-11-15T03:04:20.789Z,12.90
2022-11-15T03:06:56.218Z,9.63
2022-11-15T03:09:36.349Z,8.73
2022-11-15T03:12:13.543Z,11.70
2022-11-15T03:14:50.196Z,9.52
2022-11-15T03:17:26.478Z,10.18
2022-11-15T03:20:06.388Z,11.45
2022-11-15T03:22:42.843Z,12.18
2022-11-15T03:25:17.975Z,9.63
2022-11-15T03:27:55.237Z,8.43
2022-11-15T03:30:29.088Z,8.88
2022-11-15T03:33:04.220Z,7.78
2022-11-15T03:35:44.817Z,6.70
2022-11-15T03:38:24.799Z,10.50
2022-11-15T03:41:07.472Z,9.15
2022-11-15T03:43:45.076Z,7.45
2022-11-15T03:46:20.524Z,7.95
2022-11-15T03:51:36.463Z,10.48
2022-11-15T03:54:11.135Z,7.05
2022-11-15T03:56:45.177Z,9.15
2022-11-15T03:59:19.160Z,7.15
2022-11-15T04:01:52.954Z,7.05
2022-11-15T04:04:26.854Z,7.53
2022-11-15T04:07:06.157Z,6.72
2022-11-15T04:10:00.160Z,10.30
2022-11-15T04:12:37.982Z,5.57
2022-11-15T04:15:15.911Z,7.57
2022-11-15T04:17:50.451Z,8.18
2022-11-15T04:20:39.610Z,9.23
2022-11-15T04:23:33.474Z,8.80
2022-11-15T04:26:10.145Z,5.38
2022-11-15T04:29:04.663Z,7.32
2022-11-15T04:31:38.757Z,6.18
2022-11-15T04:34:12.713Z,8.57
2022-11-15T04:36:59.648Z,6.63
2022-11-15T04:39:41.543Z,7.20
2022-11-15T04:42:15.474Z,8.95
2022-11-15T04:44:49.363Z,9.15
2022-11-15T04:47:23.270Z,6.38
2022-11-15T04:49:57.195Z,7.78
2022-11-15T04:52:31.240Z,9.32
2022-11-15T04:55:10.947Z,5.43
2022-11-15T04:57:44.867Z,6.55
2022-11-15T05:00:20.336Z,6.88
2022-11-15T05:02:51.407Z,8.48
2022-11-15T05:05:25.416Z,7.70
2022-11-15T05:07:59.394Z,6.07
2022-11-15T05:10:38.749Z,6.65
2022-11-15T05:13:12.635Z,7.50
2022-11-15T05:15:46.759Z,7.13
2022-11-15T05:18:23.507Z,8.25
2022-11-15T05:20:57.857Z,6.80
2022-11-15T05:23:32.003Z,7.35
2022-11-15T05:26:13.121Z,6.93
2022-11-15T05:28:46.962Z,7.30
2022-11-15T05:31:21.555Z,5.78
2022-11-15T05:33:56.352Z,8.77
2022-11-15T05:36:34.645Z,6.60
2022-11-15T05:39:09.467Z,7.43
2022-11-15T05:41:50.930Z,7.55
2022-11-15T05:44:28.445Z,10.02
2022-11-15T05:47:02.339Z,10.07
2022-11-15T05:49:38.566Z,7.82
2022-11-15T05:52:12.990Z,8.20
2022-11-15T05:54:46.819Z,8.13
2022-11-15T05:57:26.375Z,10.05
2022-11-15T06:00:00.579Z,8.27
2022-11-15T06:02:34.499Z,9.23
2022-11-15T06:05:08.425Z,9.65
2022-11-15T06:07:42.254Z,13.20
2022-11-15T06:10:16.777Z,6.72
2022-11-15T06:13:03.278Z,8.23
2022-11-15T06:15:37.363Z,9.68
2022-11-15T06:18:11.365Z,10.90
2022-11-15T06:20:45.258Z,12.25
2022-11-15T06:23:19.111Z,9.43
2022-11-15T06:25:52.956Z,9.77
2022-11-15T06:28:32.077Z,8.50
2022-11-15T06:31:10.503Z,6.80
2022-11-15T06:33:44.347Z,7.00
2022-11-15T06:36:19.162Z,8.48
2022-11-15T06:38:53.136Z,6.15
2022-11-15T06:41:26.947Z,8.70
2022-11-15T06:44:06.412Z,7.47
2022-11-15T06:46:40.478Z,7.18
2022-11-15T06:49:14.350Z,9.25
2022-11-15T06:51:48.311Z,5.78
2022-11-15T06:54:24.969Z,5.82
2022-11-15T06:56:59.090Z,5.00
2022-11-15T06:59:40.595Z,4.75
2022-11-15T07:02:20.333Z,6.65
2022-11-15T07:04:54.221Z,3.97
2022-11-15T07:07:28.180Z,4.07
2022-11-15T07:10:02.252Z,5.00
2022-11-15T07:12:36.080Z,7.68
2022-11-15T07:15:16.774Z,6.07
2022-11-15T07:17:50.662Z,5.78
2022-11-15T07:20:24.908Z,3.72
2022-11-15T07:22:58.802Z,4.55
2022-11-15T07:25:32.752Z,3.72
2022-11-15T07:28:07.412Z,4.57
2022-11-15T07:30:46.833Z,3.47
2022-11-15T07:33:20.742Z,6.95
2022-11-15T07:35:55.651Z,5.15
2022-11-15T07:38:29.491Z,3.47
2022-11-15T07:41:07.040Z,4.63
2022-11-15T07:43:41.067Z,2.95
2022-11-15T07:46:20.274Z,3.92
2022-11-15T07:48:54.241Z,5.85
2022-11-15T07:51:28.122Z,2.92
2022-11-15T07:54:04.700Z,3.50
2022-11-15T07:56:38.567Z,2.65
2022-11-15T07:59:12.438Z,4.25
2022-11-15T08:01:51.663Z,4.75
2022-11-15T08:04:28.629Z,7.75
2022-11-15T08:07:02.548Z,4.32
2022-11-15T08:09:36.403Z,3.75
2022-11-15T08:12:10.575Z,3.95
2022-11-15T08:14:44.482Z,3.72
2022-11-15T08:17:23.631Z,3.22
2022-11-15T08:19:57.594Z,4.72
2022-11-15T08:22:31.563Z,2.45
2022-11-15T08:25:05.504Z,4.93
2022-11-15T08:27:39.643Z,3.55
2022-11-15T08:30:16.965Z,5.07
2022-11-15T08:32:57.575Z,4.88
2022-11-15T08:35:31.747Z,2.83
2022-11-15T08:38:05.755Z,5.15
2022-11-15T08:40:39.746Z,4.70
2022-11-15T08:43:13.699Z,4.28
2022-11-15T08:45:48.080Z,5.40
2022-11-15T08:48:27.387Z,3.00
2022-11-15T08:51:02.295Z,3.45
2022-11-15T08:53:36.278Z,4.07
2022-11-15T08:56:10.602Z,4.65
2022-11-15T08:58:44.754Z,3.55
2022-11-15T09:01:24.362Z,5.45
2022-11-15T09:04:03.788Z,2.50
2022-11-15T09:06:42.982Z,3.00
2022-11-15T09:09:17.184Z,3.92
2022-11-15T09:11:51.273Z,3.67
2022-11-15T09:14:25.157Z,4.07
2022-11-15T09:16:59.239Z,7.03
2022-11-15T09:19:38.881Z,3.88
2022-11-15T09:22:13.827Z,4.00
2022-11-15T09:24:47.764Z,4.72
2022-11-15T09:27:21.837Z,4.13
2022-11-15T09:29:55.651Z,5.20
2022-11-15T09:32:32.537Z,3.95
2022-11-15T09:35:15.964Z,3.17
2022-11-15T09:37:56.278Z,4.13
2022-11-15T09:40:30.825Z,2.53
2022-11-15T09:43:12.548Z,5.13
2022-11-15T09:45:50.423Z,1.75
2022-11-15T09:48:52.346Z,3.45
2022-11-15T09:51:35.239Z,4.85
2022-11-15T09:54:51.808Z,1.65
2022-11-15T09:57:16.340Z,2.33
2022-11-15T10:03:14.578Z,3.08
2022-11-15T10:05:50.208Z,1.63
2022-11-15T10:08:42.161Z,3.38
2022-11-15T10:14:12.863Z,4.03
2022-11-15T10:17:14.766Z,3.78
2022-11-15T10:19:55.174Z,1.92
2022-11-15T10:22:33.866Z,5.25
2022-11-15T10:25:21.422Z,1.73
2022-11-15T10:33:31.318Z,2.75
2022-11-15T10:36:26.745Z,6.30
2022-11-15T10:39:05.074Z,2.58
2022-11-15T10:41:51.775Z,2.15
2022-11-15T10:44:30.946Z,5.88
2022-11-15T10:47:29.225Z,4.18
2022-11-15T10:52:37.486Z,2.30
2022-11-15T10:55:27.250Z,2.77
2022-11-15T10:58:10.973Z,3.45
2022-11-15T11:03:36.325Z,3.50
2022-11-15T11:06:12.698Z,2.55
2022-11-15T11:11:25.616Z,4.30
2022-11-15T11:14:11.306Z,2.03
2022-11-15T11:16:50.382Z,4.10
2022-11-15T11:19:22.445Z,3.50
2022-11-15T11:21:59.240Z,4.20
2022-11-15T11:24:40.524Z,4.05
2022-11-15T11:27:25.117Z,3.63
2022-11-15T11:30:18.422Z,2.53
2022-11-15T11:33:02.157Z,4.57
2022-11-15T11:35:38.248Z,2.28
2022-11-15T11:38:26.941Z,5.15
2022-11-15T11:41:08.090Z,2.92
2022-11-15T11:43:46.468Z,1.63
2022-11-15T11:46:43.613Z,3.00
2022-11-15T11:49:23.281Z,2.63
2022-11-15T11:51:59.492Z,5.30
2022-11-15T11:54:38.255Z,1.55
2022-11-15T11:57:14.813Z,1.23
2022-11-15T11:59:51.550Z,3.40
2022-11-15T12:02:35.412Z,1.92
2022-11-15T12:05:16.197Z,6.88
2022-11-15T12:07:50.082Z,5.13
2022-11-15T12:10:28.437Z,3.58
2022-11-15T12:13:06.543Z,2.40
2022-11-15T12:15:43.328Z,3.33
2022-11-15T12:18:23.390Z,1.88
2022-11-15T12:21:01.368Z,5.47
2022-11-15T12:23:36.263Z,1.85
2022-11-15T12:26:11.782Z,1.95
2022-11-15T12:29:05.844Z,2.38
2022-11-15T12:31:45.726Z,4.53
2022-11-15T12:34:49.927Z,1.98
2022-11-15T12:37:54.342Z,2.90
2022-11-15T12:40:42.482Z,3.58
2022-11-15T12:43:49.215Z,1.73
2022-11-15T12:46:29.052Z,3.25
2022-11-15T12:49:04.225Z,6.97
2022-11-15T12:52:16.472Z,2.50
2022-11-15T12:55:06.873Z,4.75
2022-11-15T12:57:48.048Z,7.43
2022-11-15T13:00:52.620Z,1.83
2022-11-15T13:03:32.095Z,1.48
2022-11-15T13:06:12.231Z,3.13
2022-11-15T13:08:56.126Z,1.77
2022-11-15T13:11:53.432Z,2.55
2022-11-15T13:14:53.608Z,7.97
2022-11-15T13:17:33.297Z,2.00
2022-11-15T13:20:27.030Z,3.53
2022-11-15T13:23:06.728Z,6.93
2022-11-15T13:25:54.078Z,4.20
2022-11-15T13:28:31.255Z,2.58
2022-11-15T13:33:38.468Z,2.58
2022-11-15T13:36:14.278Z,2.85
2022-11-15T13:38:48.225Z,1.80
2022-11-15T13:41:29.290Z,4.70
2022-11-15T13:44:05.116Z,2.72
2022-11-15T13:46:41.531Z,2.67
2022-11-15T13:49:17.673Z,1.83
2022-11-15T13:51:52.591Z,3.25
2022-11-15T13:54:28.483Z,2.45
2022-11-15T13:57:09.278Z,3.50
2022-11-15T13:59:43.793Z,1.90
2022-11-15T14:02:20.896Z,3.03
2022-11-15T14:04:55.770Z,2.45
2022-11-15T14:07:30.817Z,1.33
2022-11-15T14:10:04.695Z,3.35
2022-11-15T14:12:44.182Z,1.77
2022-11-15T14:15:32.557Z,2.03
2022-11-15T14:18:06.530Z,1.80
2022-11-15T14:20:41.814Z,1.08
2022-11-15T14:23:27.885Z,4.53
2022-11-15T14:26:08.839Z,3.67
2022-11-15T14:31:18.885Z,2.92
2022-11-15T14:33:58.196Z,5.78
2022-11-15T14:47:13.929Z,6.85
2022-11-15T14:49:53.297Z,3.97
2022-11-15T14:52:36.305Z,7.25
2022-11-15T14:55:11.575Z,3.63
2022-11-15T14:57:45.616Z,4.78
2022-11-15T15:05:27.257Z,4.63
2022-11-15T15:08:01.188Z,4.07
2022-11-15T15:10:40.557Z,2.35
2022-11-15T15:13:12.864Z,4.25
2022-11-15T15:18:15.863Z,4.65
2022-11-15T15:20:57.096Z,4.63
2022-11-15T15:23:32.892Z,2.72
2022-11-15T15:26:07.006Z,3.83
2022-11-15T15:28:41.613Z,3.65
2022-11-15T15:31:16.106Z,4.10
2022-11-15T15:33:50.121Z,2.58
2022-11-15T15:36:29.895Z,4.53
2022-11-15T15:39:03.934Z,3.55
2022-11-15T15:41:37.958Z,4.68
2022-11-15T15:44:11.914Z,10.77
2022-11-15T15:52:00.044Z,7.32
2022-11-15T15:54:31.990Z,6.90
2022-11-15T15:59:29.038Z,6.82
2022-11-15T16:04:34.127Z,6.40
2022-11-15T16:20:28.146Z,7.05
2022-11-15T16:23:07.380Z,7.75
2022-11-15T16:25:46.912Z,6.22
2022-11-15T16:28:26.025Z,6.95
2022-11-15T16:31:07.785Z,8.07
2022-11-15T16:33:41.654Z,7.68
2022-11-15T16:36:30.832Z,6.72
2022-11-15T16:39:06.046Z,4.60
2022-11-15T16:41:39.958Z,6.82
2022-11-15T16:44:13.869Z,7.25
2022-11-15T16:46:53.427Z,4.18
2022-11-15T16:57:38.627Z,8.52
2022-11-15T17:03:04.690Z,4.93
2022-11-15T17:05:38.726Z,5.00
2022-11-15T17:08:13.330Z,6.65
2022-11-15T17:10:47.753Z,5.53
2022-11-15T17:13:27.062Z,6.07
2022-11-15T17:16:11.386Z,6.95
2022-11-15T17:18:46.763Z,5.05
2022-11-15T17:26:40.792Z,7.32
2022-11-15T17:29:25.143Z,8.27
2022-11-15T17:40:01.067Z,4.38
2022-11-15T17:42:35.198Z,7.78
2022-11-15T17:45:15.643Z,7.22
2022-11-15T17:47:49.660Z,7.18
2022-11-15T17:50:23.982Z,9.07
2022-11-15T17:52:58.405Z,9.43
2022-11-15T17:55:32.362Z,4.43
2022-11-15T17:58:06.665Z,4.53
2022-11-15T18:00:46.445Z,5.07
2022-11-15T18:03:20.362Z,6.80
2022-11-15T18:05:54.682Z,10.05
2022-11-15T18:08:28.563Z,7.65
2022-11-15T18:11:10.436Z,10.63
2022-11-15T18:13:50.961Z,5.57
2022-11-15T18:19:01.387Z,7.22
2022-11-15T18:21:36.936Z,4.32
2022-11-15T18:24:11.566Z,5.38
2022-11-15T18:26:45.826Z,5.13
2022-11-15T18:29:21.083Z,3.88
2022-11-15T18:31:56.560Z,3.70
2022-11-15T18:34:37.052Z,5.68
2022-11-15T18:37:10.997Z,5.65
2022-11-15T18:39:47.484Z,3.70
2022-11-15T18:42:25.173Z,3.30
2022-11-15T18:44:58.977Z,5.40
2022-11-15T18:47:32.925Z,3.47
2022-11-15T18:50:12.781Z,5.63
2022-11-15T18:52:47.153Z,5.72
2022-11-15T18:55:21.607Z,4.60
2022-11-15T18:57:55.544Z,3.20
2022-11-15T19:00:29.540Z,5.18
2022-11-15T19:03:03.413Z,3.58
2022-11-15T19:05:42.651Z,4.88
2022-11-15T19:08:16.578Z,3.75
2022-11-15T19:10:50.731Z,3.85
2022-11-15T19:13:24.971Z,3.17
2022-11-15T19:16:05.105Z,3.85
2022-11-15T19:18:39.523Z,6.15
2022-11-15T19:21:19.393Z,5.47
2022-11-15T19:23:54.083Z,6.28
2022-11-15T19:26:29.680Z,5.03
2022-11-15T19:42:31.832Z,4.38
2022-11-15T19:45:11.910Z,6.63
2022-11-15T19:47:46.522Z,5.15
2022-11-15T19:50:20.833Z,6.60
2022-11-15T19:52:55.094Z,5.20
2022-11-15T20:00:46.117Z,3.90
2022-11-15T20:03:25.876Z,2.88
2022-11-15T20:05:59.987Z,3.78
2022-11-15T20:08:34.493Z,4.03
2022-11-15T20:11:09.148Z,6.45
2022-11-15T20:13:43.211Z,5.65
2022-11-15T20:27:05.882Z,4.65
2022-11-15T20:29:41.100Z,4.20
2022-11-15T20:32:21.147Z,5.07
2022-11-15T20:34:53.900Z,5.32
2022-11-15T20:57:24.844Z,8.35
2022-11-15T20:59:56.481Z,4.78
2022-11-15T21:07:49.525Z,6.80
2022-11-15T21:10:21.231Z,3.63
2022-11-15T21:15:22.104Z,14.80
2022-11-15T21:33:47.345Z,4.07
2022-11-15T21:38:50.188Z,4.82
2022-11-15T21:46:55.063Z,3.90
2022-11-15T21:54:33.017Z,3.47
2022-11-15T22:24:03.924Z,5.38
2022-11-15T22:26:37.755Z,3.28
2022-11-15T22:29:06.352Z,7.07
2022-11-15T22:31:40.452Z,4.18
2022-11-15T22:34:12.294Z,3.33
2022-11-15T22:39:14.306Z,4.45
2022-11-15T22:44:27.276Z,6.28
2022-11-15T22:51:00.064Z,3.83
2022-11-15T22:56:03.129Z,4.45
2022-11-15T22:58:38.220Z,3.17
2022-11-15T23:03:59.055Z,3.08
2022-11-15T23:06:33.442Z,4.95
2022-11-15T23:09:07.453Z,3.80
2022-11-15T23:11:54.607Z,3.65
2022-11-15T23:19:36.176Z,8.30
2022-11-15T23:27:50.209Z,4.00
2022-11-15T23:30:22.144Z,5.47
2022-11-15T23:46:23.003Z,11.30
2022-11-15T23:48:56.782Z,5.88
2022-11-15T23:54:17.213Z,5.75
2022-11-15T23:59:31.154Z,4.47
